Time;durP1;ratioP1;P1;durP2;ratioP2;P2;SDS_P1;SDS_P2;PMS_P1;PMS_P2;Temp;Humidity;BMP_temperature;BMP_pressure;BME280_temperature;BME280_humidity;BME280_pressure;Samples;Min_cycle;Max_cycle;Signal;HPM_P1;HPM_P2
2020/12/11 00:01:20;;;;;;;12.95;6.85;;;3.00;99.90;;;;;;5030494;28;20116;-56
2020/12/11 00:04:06;;;;;;;12.07;6.60;;;3.20;99.90;;;;;;5030899;28;20039;-54
2020/12/11 00:06:54;;;;;;;15.73;8.00;;;3.20;99.90;;;;;;5029688;28;20162;-56
2020/12/11 00:09:40;;;;;;;13.07;7.82;;;3.10;99.90;;;;;;5030553;28;20037;-56
2020/12/11 00:12:26;;;;;;;15.90;8.30;;;2.80;99.90;;;;;;5030516;28;20041;-56
2020/12/11 00:15:12;;;;;;;13.77;7.55;;;2.70;99.90;;;;;;5030162;28;20482;-53
2020/12/11 00:17:58;;;;;;;11.88;6.95;;;2.60;99.90;;;;;;5029823;28;20035;-52
2020/12/11 00:20:44;;;;;;;15.57;7.45;;;2.60;99.90;;;;;;5031229;28;20037;-51
2020/12/11 00:23:30;;;;;;;14.40;7.28;;;2.50;99.90;;;;;;5030102;28;20474;-56
2020/12/11 00:26:16;;;;;;;13.52;7.95;;;2.60;99.90;;;;;;5031371;28;20494;-58
2020/12/11 00:29:03;;;;;;;14.65;8.50;;;2.50;99.90;;;;;;5031639;28;20040;-56
2020/12/11 00:31:49;;;;;;;12.50;7.50;;;2.40;99.90;;;;;;5030770;28;20038;-54
2020/12/11 00:34:36;;;;;;;16.77;7.55;;;2.40;99.90;;;;;;5030482;28;20037;-56
2020/12/11 00:37:22;;;;;;;14.23;7.70;;;2.40;99.90;;;;;;5030311;28;20038;-54
2020/12/11 00:40:08;;;;;;;14.20;7.85;;;2.30;99.90;;;;;;5030484;28;20045;-55
2020/12/11 00:42:54;;;;;;;15.13;7.90;;;2.30;99.90;;;;;;5030187;28;20045;-56
2020/12/11 00:45:40;;;;;;;19.05;8.60;;;2.40;99.90;;;;;;5030661;28;20061;-56
2020/12/11 00:48:27;;;;;;;16.85;7.53;;;2.40;99.90;;;;;;5029896;28;20116;-54
2020/12/11 00:51:21;;;;;;;11.88;7.30;;;2.40;99.90;;;;;;5031787;28;20406;-56
2020/12/11 00:54:07;;;;;;;14.27;8.18;;;2.40;99.90;;;;;;5030144;28;20038;-56
2020/12/11 00:56:53;;;;;;;15.95;7.80;;;2.30;99.90;;;;;;5030006;28;20434;-56
2020/12/11 00:59:39;;;;;;;12.20;7.15;;;2.30;99.90;;;;;;5030466;28;20406;-57
2020/12/11 01:02:25;;;;;;;14.18;7.63;;;2.30;99.90;;;;;;5033130;28;20091;-57
2020/12/11 01:05:11;;;;;;;14.90;7.32;;;2.20;99.90;;;;;;5033845;28;20081;-57
2020/12/11 01:07:58;;;;;;;14.65;8.07;;;2.20;99.90;;;;;;5035220;28;20112;-57
2020/12/11 01:10:44;;;;;;;14.85;7.22;;;2.20;99.90;;;;;;5034523;28;20068;-57
2020/12/11 01:13:30;;;;;;;13.10;7.03;;;2.10;99.90;;;;;;5033996;28;20099;-57
2020/12/11 01:16:16;;;;;;;13.77;7.57;;;2.20;99.90;;;;;;5033674;28;20553;-54
2020/12/11 01:19:02;;;;;;;14.98;8.00;;;2.40;99.90;;;;;;5034449;28;20065;-57
2020/12/11 01:21:48;;;;;;;12.27;7.25;;;2.40;99.90;;;;;;5034672;28;20116;-56
2020/12/11 01:24:34;;;;;;;13.20;7.05;;;2.50;99.90;;;;;;5034657;28;20119;-57
2020/12/11 01:27:23;;;;;;;11.43;6.95;;;2.60;99.90;;;;;;5034482;28;20457;-52
2020/12/11 01:30:09;;;;;;;14.85;7.65;;;2.70;99.90;;;;;;5032369;28;20056;-57
2020/12/11 01:32:55;;;;;;;14.63;7.35;;;2.60;99.90;;;;;;5033578;28;20451;-55
2020/12/11 01:35:43;;;;;;;13.50;7.45;;;2.60;99.90;;;;;;5033657;28;20463;-55
2020/12/11 01:38:29;;;;;;;13.20;6.90;;;2.60;99.90;;;;;;5033413;28;20049;-56
2020/12/11 01:41:15;;;;;;;13.50;7.05;;;2.60;99.90;;;;;;5033090;28;20394;-53
2020/12/11 01:44:06;;;;;;;13.75;7.70;;;2.60;99.90;;;;;;5033049;28;20048;-57
2020/12/11 01:46:57;;;;;;;15.15;7.90;;;2.60;99.90;;;;;;5034433;28;20052;-56
2020/12/11 01:49:45;;;;;;;15.93;8.20;;;2.60;99.90;;;;;;5032217;28;20037;-55
2020/12/11 01:52:31;;;;;;;13.85;7.22;;;2.50;99.90;;;;;;5033547;28;20025;-57
2020/12/11 01:55:17;;;;;;;15.02;7.65;;;2.50;99.90;;;;;;5034037;28;20046;-57
2020/12/11 01:58:14;;;;;;;12.38;7.50;;;2.30;99.90;;;;;;5031786;28;20049;-56
2020/12/11 02:01:02;;;;;;;14.27;7.75;;;2.30;99.90;;;;;;5032989;28;20036;-55
2020/12/11 02:03:48;;;;;;;16.92;8.07;;;2.30;99.90;;;;;;5033240;28;20039;-57
2020/12/11 02:06:36;;;;;;;15.95;8.15;;;2.20;99.90;;;;;;5032612;28;20100;-54
2020/12/11 02:09:24;;;;;;;16.25;8.23;;;2.10;99.90;;;;;;5033136;28;20049;-57
2020/12/11 02:12:10;;;;;;;14.57;7.80;;;2.00;99.90;;;;;;5032612;28;20064;-58
2020/12/11 02:14:56;;;;;;;17.58;8.52;;;1.80;99.90;;;;;;5032385;28;20025;-57
2020/12/11 02:17:42;;;;;;;15.70;8.20;;;1.80;99.90;;;;;;5032354;28;20042;-57
2020/12/11 02:20:28;;;;;;;18.17;8.68;;;1.80;99.90;;;;;;5032361;28;20452;-55
2020/12/11 02:23:14;;;;;;;17.73;8.77;;;1.70;99.90;;;;;;5033282;28;20029;-57
2020/12/11 02:26:00;;;;;;;23.30;9.93;;;1.70;99.90;;;;;;5031499;28;20034;-56
2020/12/11 02:28:46;;;;;;;20.38;9.30;;;1.80;99.90;;;;;;5033318;28;20041;-57
2020/12/11 02:31:32;;;;;;;19.30;9.27;;;1.80;99.90;;;;;;5032249;28;20038;-54
2020/12/11 02:34:20;;;;;;;18.13;9.18;;;1.80;99.90;;;;;;5033425;28;20025;-57
2020/12/11 02:37:06;;;;;;;21.48;9.20;;;1.80;99.90;;;;;;5032448;28;20048;-54
2020/12/11 02:39:52;;;;;;;22.85;10.52;;;1.80;99.90;;;;;;5032392;28;20490;-54
2020/12/11 02:42:38;;;;;;;20.40;9.77;;;1.90;99.90;;;;;;5033355;28;20042;-57
2020/12/11 02:45:24;;;;;;;21.00;10.05;;;1.90;99.90;;;;;;5031454;28;20094;-57
2020/12/11 02:48:10;;;;;;;19.45;10.30;;;1.90;99.90;;;;;;5032734;28;20042;-54
2020/12/11 02:50:57;;;;;;;20.65;9.73;;;1.80;99.90;;;;;;5032517;28;20102;-54
2020/12/11 02:53:43;;;;;;;24.42;10.73;;;1.80;99.90;;;;;;5031811;28;20030;-56
2020/12/11 02:56:29;;;;;;;20.05;9.85;;;1.70;99.90;;;;;;5033081;28;20045;-56
2020/12/11 02:59:15;;;;;;;22.00;9.98;;;1.80;99.90;;;;;;5031602;28;20045;-54
2020/12/11 03:02:01;;;;;;;21.42;10.48;;;1.80;99.90;;;;;;5031851;28;20069;-57
2020/12/11 03:04:47;;;;;;;26.58;10.77;;;1.70;99.90;;;;;;5016502;28;20127;-57
2020/12/11 03:07:33;;;;;;;27.67;11.32;;;1.70;99.90;;;;;;5032523;28;20135;-55
2020/12/11 03:10:19;;;;;;;22.45;10.65;;;1.70;99.90;;;;;;5030939;28;20041;-56
2020/12/11 03:13:05;;;;;;;25.70;12.15;;;1.70;99.90;;;;;;5031344;28;20037;-57
2020/12/11 03:15:52;;;;;;;20.42;9.32;;;1.80;99.90;;;;;;5031786;28;20030;-56
2020/12/11 03:18:38;;;;;;;24.25;10.20;;;1.80;99.90;;;;;;5031308;28;20045;-56
2020/12/11 03:21:24;;;;;;;21.00;10.70;;;1.80;99.90;;;;;;5031289;28;20120;-57
2020/12/11 03:24:10;;;;;;;26.70;10.25;;;1.80;99.90;;;;;;5030388;28;20568;-56
2020/12/11 03:26:56;;;;;;;22.13;11.18;;;1.90;99.90;;;;;;5031213;28;20506;-55
2020/12/11 03:29:42;;;;;;;24.52;10.63;;;1.90;99.90;;;;;;5031397;28;20098;-56
2020/12/11 03:32:28;;;;;;;23.95;10.95;;;1.90;99.90;;;;;;5031375;28;20030;-56
2020/12/11 03:35:14;;;;;;;22.00;10.35;;;1.90;99.90;;;;;;5032216;28;20060;-57
2020/12/11 03:38:00;;;;;;;21.92;10.10;;;1.80;99.90;;;;;;5032173;28;20069;-59
2020/12/11 03:40:47;;;;;;;22.05;10.43;;;1.90;99.90;;;;;;5031023;28;20422;-53
2020/12/11 03:43:33;;;;;;;24.08;10.88;;;1.90;99.90;;;;;;5031358;28;20164;-55
2020/12/11 03:46:20;;;;;;;22.15;10.02;;;1.90;99.90;;;;;;5031637;28;20026;-56
2020/12/11 03:49:07;;;;;;;27.02;12.10;;;1.80;99.90;;;;;;5031851;28;20044;-56
2020/12/11 03:51:53;;;;;;;23.30;10.25;;;1.80;99.90;;;;;;5030647;28;20067;-55
2020/12/11 03:54:39;;;;;;;21.05;10.68;;;1.80;99.90;;;;;;5032272;28;20037;-55
2020/12/11 03:57:25;;;;;;;26.27;11.48;;;1.80;99.90;;;;;;5031883;28;20091;-54
2020/12/11 04:00:11;;;;;;;20.17;10.52;;;1.70;99.90;;;;;;5030728;28;20044;-56
2020/12/11 04:02:57;;;;;;;24.23;11.98;;;1.80;99.90;;;;;;5030812;28;20075;-57
2020/12/11 04:05:43;;;;;;;24.05;10.68;;;1.80;99.90;;;;;;5031135;28;20100;-56
2020/12/11 04:08:29;;;;;;;22.63;10.23;;;1.80;99.90;;;;;;5031694;28;20045;-56
2020/12/11 04:11:15;;;;;;;19.50;9.55;;;1.70;99.90;;;;;;5031061;28;20048;-56
2020/12/11 04:14:03;;;;;;;23.58;10.52;;;1.80;99.90;;;;;;5030898;28;20037;-56
2020/12/11 04:16:49;;;;;;;24.60;11.25;;;1.70;99.90;;;;;;5031461;28;20108;-57
2020/12/11 04:19:35;;;;;;;26.42;12.38;;;1.70;99.90;;;;;;5031403;28;20550;-57
2020/12/11 04:22:25;;;;;;;23.15;10.98;;;1.70;99.90;;;;;;5030766;28;20042;-56
2020/12/11 04:25:11;;;;;;;23.17;10.88;;;1.70;99.90;;;;;;5030513;28;20029;-57
2020/12/11 04:27:57;;;;;;;21.58;10.43;;;1.80;99.90;;;;;;5015460;28;20045;-57
2020/12/11 04:30:43;;;;;;;19.48;9.93;;;1.80;99.90;;;;;;5031907;28;20034;-55
2020/12/11 04:33:29;;;;;;;21.52;9.55;;;1.80;99.90;;;;;;5029630;28;20037;-57
2020/12/11 04:36:16;;;;;;;21.02;9.88;;;1.90;99.90;;;;;;5034728;28;20029;-54
2020/12/11 04:39:03;;;;;;;20.80;10.55;;;1.90;99.90;;;;;;5034461;28;20464;-57
2020/12/11 04:41:52;;;;;;;20.45;9.70;;;1.90;99.90;;;;;;5034257;28;20441;-57
2020/12/11 04:44:39;;;;;;;21.52;10.60;;;1.70;99.90;;;;;;5032647;28;20049;-52
2020/12/11 04:47:25;;;;;;;21.10;10.43;;;1.60;99.90;;;;;;5033894;28;20029;-56
2020/12/11 04:50:17;;;;;;;21.80;10.98;;;1.50;99.90;;;;;;5033619;28;20116;-53
2020/12/11 04:53:04;;;;;;;26.27;11.15;;;1.40;99.90;;;;;;5013860;28;20042;-55
2020/12/11 04:55:54;;;;;;;21.52;10.13;;;1.40;99.90;;;;;;5014117;28;20519;-56
2020/12/11 04:58:49;;;;;;;22.63;10.63;;;1.50;99.90;;;;;;5017027;28;20525;-56
2020/12/11 05:01:37;;;;;;;20.58;10.02;;;1.50;99.90;;;;;;5018944;28;20124;-55
2020/12/11 05:04:23;;;;;;;21.48;10.45;;;1.40;99.90;;;;;;5019769;28;20041;-56
2020/12/11 05:07:09;;;;;;;22.52;11.02;;;1.40;99.90;;;;;;5033390;28;20052;-56
2020/12/11 05:09:57;;;;;;;22.88;11.55;;;1.50;99.90;;;;;;5033174;28;20552;-56
2020/12/11 05:12:43;;;;;;;22.05;10.70;;;1.60;99.90;;;;;;5033531;28;20037;-57
2020/12/11 05:15:29;;;;;;;22.45;9.93;;;1.60;99.90;;;;;;5034176;28;20037;-57
2020/12/11 05:18:19;;;;;;;21.80;10.48;;;1.50;99.90;;;;;;5033812;28;20095;-57
2020/12/11 05:21:22;;;;;;;21.70;10.15;;;1.60;99.90;;;;;;5033613;28;20116;-56
2020/12/11 05:24:08;;;;;;;21.52;10.30;;;1.50;99.90;;;;;;5034735;28;20457;-57
2020/12/11 05:26:54;;;;;;;21.02;11.50;;;1.50;99.90;;;;;;5033940;28;20228;-57
2020/12/11 05:29:40;;;;;;;20.42;9.82;;;1.40;99.90;;;;;;5033379;28;20044;-56
2020/12/11 05:32:40;;;;;;;25.92;11.13;;;1.40;99.90;;;;;;5018981;28;20041;-52
2020/12/11 05:35:31;;;;;;;24.60;11.40;;;1.40;99.90;;;;;;5034821;28;20037;-57
2020/12/11 05:38:17;;;;;;;24.05;11.95;;;1.30;99.90;;;;;;5034382;28;20075;-57
2020/12/11 05:41:03;;;;;;;23.95;12.35;;;1.40;99.90;;;;;;5032561;28;20052;-57
2020/12/11 05:43:49;;;;;;;23.50;11.80;;;1.50;99.90;;;;;;5032191;28;20042;-55
2020/12/11 05:46:35;;;;;;;27.02;12.93;;;1.50;99.90;;;;;;5032425;28;20044;-55
2020/12/11 05:49:29;;;;;;;24.17;11.85;;;1.50;99.90;;;;;;5032332;28;20108;-54
2020/12/11 05:52:23;;;;;;;20.33;11.32;;;1.50;99.90;;;;;;5018227;28;20038;-56
2020/12/11 05:55:17;;;;;;;23.27;11.60;;;1.50;99.90;;;;;;5031685;28;20044;-56
2020/12/11 05:58:06;;;;;;;24.77;11.68;;;1.50;99.90;;;;;;5017493;28;20541;-56
2020/12/11 06:00:54;;;;;;;25.67;11.90;;;1.50;99.90;;;;;;5017916;28;20421;-57
2020/12/11 06:03:40;;;;;;;21.25;10.35;;;1.50;99.90;;;;;;5033061;28;20034;-54
2020/12/11 06:06:34;;;;;;;24.33;13.00;;;1.60;99.90;;;;;;5017386;28;20064;-54
2020/12/11 06:09:27;;;;;;;25.30;12.00;;;1.60;99.90;;;;;;5017310;28;20071;-56
2020/12/11 06:12:13;;;;;;;29.42;11.35;;;1.50;99.90;;;;;;5018143;28;20037;-56
2020/12/11 06:15:21;;;;;;;25.73;12.27;;;1.60;99.90;;;;;;5028398;28;20026;-57
2020/12/11 06:18:27;;;;;;;24.17;11.93;;;1.60;99.90;;;;;;5029197;28;20053;-56
2020/12/11 06:21:18;;;;;;;27.58;11.93;;;1.60;99.90;;;;;;5016896;28;20100;-56
2020/12/11 06:24:31;;;;;;;22.70;10.98;;;1.60;99.90;;;;;;5017075;28;20045;-56
2020/12/11 06:27:30;;;;;;;23.90;11.55;;;1.60;99.90;;;;;;5031375;28;20044;-57
2020/12/11 06:30:53;;;;;;;21.60;11.63;;;1.70;99.90;;;;;;5031995;28;20061;-55
2020/12/11 06:33:42;;;;;;;21.63;11.05;;;1.70;99.90;;;;;;5019556;28;20407;-55
2020/12/11 06:36:28;;;;;;;23.70;12.68;;;1.60;99.90;;;;;;5032212;28;20095;-56
2020/12/11 06:39:45;;;;;;;27.13;11.40;;;1.60;99.90;;;;;;5010328;28;615152;-55
2020/12/11 06:42:40;;;;;;;24.95;11.25;;;1.60;99.90;;;;;;5018211;28;20124;-57
2020/12/11 06:45:28;;;;;;;23.45;12.00;;;1.60;99.90;;;;;;5032069;28;20490;-56
2020/12/11 06:48:14;;;;;;;18.77;9.90;;;1.60;99.90;;;;;;5032772;28;20187;-55
2020/12/11 06:51:04;;;;;;;19.48;10.18;;;1.60;99.90;;;;;;5032346;28;20038;-57
2020/12/11 06:53:50;;;;;;;20.73;10.35;;;1.60;99.90;;;;;;5029084;28;20092;-56
2020/12/11 06:56:52;;;;;;;22.80;10.52;;;1.60;99.90;;;;;;5030033;28;20030;-57
2020/12/11 06:59:39;;;;;;;23.05;10.75;;;1.70;99.90;;;;;;5031131;28;20500;-56
2020/12/11 07:02:26;;;;;;;24.38;10.80;;;1.70;99.90;;;;;;5031369;28;20406;-53
2020/12/11 07:05:13;;;;;;;23.38;11.05;;;1.70;99.90;;;;;;5031663;28;20040;-52
2020/12/11 07:07:59;;;;;;;21.27;10.93;;;1.60;99.90;;;;;;5032127;28;20033;-55
2020/12/11 07:10:45;;;;;;;23.88;11.85;;;1.60;99.90;;;;;;5032289;28;20022;-54
2020/12/11 07:13:32;;;;;;;24.77;12.63;;;1.90;99.90;;;;;;5032320;28;20038;-51
2020/12/11 07:16:19;;;;;;;34.03;16.50;;;1.90;99.90;;;;;;5030349;28;20390;-53
2020/12/11 07:19:06;;;;;;;21.55;11.93;;;2.10;99.90;;;;;;5031513;28;20112;-55
2020/12/11 07:21:53;;;;;;;24.45;11.55;;;2.00;99.90;;;;;;5032694;28;20083;-56
2020/12/11 07:24:40;;;;;;;22.45;11.45;;;2.00;99.90;;;;;;5016655;28;20442;-56
2020/12/11 07:27:26;;;;;;;25.55;11.32;;;2.10;99.90;;;;;;5031251;28;20033;-55
2020/12/11 07:30:17;;;;;;;20.08;10.50;;;2.20;99.90;;;;;;5030722;28;20437;-55
2020/12/11 07:33:03;;;;;;;23.90;11.15;;;2.20;99.90;;;;;;5032502;28;20065;-55
2020/12/11 07:35:50;;;;;;;22.23;11.70;;;2.20;99.90;;;;;;5031243;28;20450;-57
2020/12/11 07:38:36;;;;;;;25.23;11.10;;;2.20;99.90;;;;;;5030882;28;20482;-53
2020/12/11 07:41:23;;;;;;;27.23;11.82;;;2.20;99.90;;;;;;5031221;28;20105;-55
2020/12/11 07:44:19;;;;;;;25.38;11.90;;;2.10;99.90;;;;;;5031652;28;20148;-57
2020/12/11 07:47:15;;;;;;;21.60;11.05;;;2.10;99.90;;;;;;5030151;28;20045;-57
2020/12/11 07:50:06;;;;;;;21.67;10.68;;;2.20;99.90;;;;;;5031207;28;20125;-55
2020/12/11 07:52:55;;;;;;;28.58;10.90;;;2.20;99.90;;;;;;5029765;28;20033;-56
2020/12/11 07:55:42;;;;;;;28.35;12.27;;;2.30;99.90;;;;;;5032279;28;20042;-53
2020/12/11 07:58:28;;;;;;;24.90;11.00;;;2.20;99.90;;;;;;5030757;28;20390;-55
2020/12/11 08:01:14;;;;;;;25.05;11.15;;;2.40;99.90;;;;;;5032462;28;20037;-55
2020/12/11 08:04:00;;;;;;;25.38;11.77;;;2.50;99.90;;;;;;5016830;28;20041;-55
2020/12/11 08:06:59;;;;;;;26.67;13.07;;;2.50;99.90;;;;;;5031355;28;20056;-55
2020/12/11 08:09:45;;;;;;;26.27;11.68;;;2.60;99.90;;;;;;5031927;28;20572;-56
2020/12/11 08:12:31;;;;;;;25.52;11.80;;;2.70;99.90;;;;;;5032037;28;20117;-54
2020/12/11 08:15:35;;;;;;;26.80;12.63;;;2.70;99.90;;;;;;5030913;28;20553;-56
2020/12/11 08:18:22;;;;;;;24.00;10.65;;;2.70;99.90;;;;;;5030246;28;20037;-55
2020/12/11 08:21:09;;;;;;;22.02;10.18;;;2.60;99.90;;;;;;5030837;28;20053;-54
2020/12/11 08:23:56;;;;;;;24.08;11.95;;;2.70;99.90;;;;;;5030942;28;20107;-54
2020/12/11 08:26:42;;;;;;;28.65;11.32;;;2.70;99.90;;;;;;5031244;28;20033;-55
2020/12/11 08:29:28;;;;;;;25.58;12.35;;;2.70;99.90;;;;;;5015932;28;20098;-56
2020/12/11 08:32:25;;;;;;;23.08;12.27;;;2.90;99.90;;;;;;5030690;28;20095;-56
2020/12/11 08:35:17;;;;;;;24.35;12.05;;;2.80;99.90;;;;;;5030670;28;20088;-56
2020/12/11 08:38:05;;;;;;;21.65;10.68;;;2.90;99.90;;;;;;5031201;28;20045;-55
2020/12/11 08:40:51;;;;;;;22.20;10.60;;;2.80;99.90;;;;;;5030131;28;20049;-56
2020/12/11 08:43:42;;;;;;;23.55;11.38;;;2.80;99.90;;;;;;5030453;28;20474;-53
2020/12/11 08:46:47;;;;;;;25.50;11.63;;;2.80;99.90;;;;;;5030743;28;20068;-57
2020/12/11 08:49:54;;;;;;;23.88;11.32;;;2.80;99.90;;;;;;5028291;28;20065;-57
2020/12/11 08:52:40;;;;;;;23.63;11.40;;;2.90;99.90;;;;;;5029245;28;20033;-56
2020/12/11 08:55:26;;;;;;;23.35;10.68;;;3.00;99.90;;;;;;5030564;28;20056;-55
2020/12/11 08:58:12;;;;;;;23.42;10.60;;;3.20;99.90;;;;;;5030961;28;20041;-55
2020/12/11 09:00:59;;;;;;;22.95;11.20;;;3.30;99.90;;;;;;5028483;28;20101;-53
2020/12/11 09:03:45;;;;;;;23.92;10.82;;;3.40;99.90;;;;;;5027058;28;20394;-56
2020/12/11 09:06:31;;;;;;;21.05;10.25;;;3.50;99.90;;;;;;5030021;28;20071;-55
2020/12/11 09:09:17;;;;;;;21.90;10.63;;;3.70;99.90;;;;;;5029087;28;20034;-54
2020/12/11 09:12:03;;;;;;;21.15;10.07;;;4.00;99.90;;;;;;5029671;28;20042;-56
2020/12/11 09:14:49;;;;;;;21.48;10.30;;;4.30;99.90;;;;;;5028037;28;20029;-55
2020/12/11 09:17:35;;;;;;;26.23;11.50;;;4.30;99.90;;;;;;5029019;28;20038;-55
2020/12/11 09:20:21;;;;;;;22.42;10.43;;;4.50;99.90;;;;;;5030188;28;20064;-56
2020/12/11 09:23:07;;;;;;;24.77;11.85;;;4.70;99.90;;;;;;5013873;28;20041;-53
2020/12/11 09:25:54;;;;;;;22.95;11.63;;;4.80;99.90;;;;;;5013750;28;20072;-53
2020/12/11 09:28:44;;;;;;;22.98;11.00;;;4.80;99.90;;;;;;5015169;28;20049;-55
2020/12/11 09:31:30;;;;;;;22.85;10.38;;;4.70;99.90;;;;;;5013252;28;20402;-55
2020/12/11 09:34:16;;;;;;;23.80;11.10;;;4.60;99.90;;;;;;5014581;28;20065;-54
2020/12/11 09:37:04;;;;;;;21.40;11.07;;;4.70;99.90;;;;;;5013395;28;20176;-56
2020/12/11 09:39:50;;;;;;;21.20;10.77;;;4.60;99.90;;;;;;5013284;28;20461;-56
2020/12/11 09:45:32;;;;;;;24.55;11.02;;;4.60;99.90;;;;;;5032344;28;20037;-56
2020/12/11 09:51:38;;;;;;;20.45;10.27;;;5.10;99.90;;;;;;5033877;28;20510;-56
2020/12/11 09:54:28;;;;;;;23.13;11.25;;;5.80;99.90;;;;;;5032655;28;20064;-54
2020/12/11 09:57:14;;;;;;;19.23;9.98;;;6.50;99.90;;;;;;5033576;28;20046;-56
2020/12/11 10:00:03;;;;;;;21.10;10.30;;;6.10;99.90;;;;;;5033176;28;20041;-53
2020/12/11 10:03:01;;;;;;;22.52;10.82;;;5.90;99.90;;;;;;5031760;28;20041;-53
2020/12/11 10:05:48;;;;;;;19.45;10.02;;;5.50;99.90;;;;;;5032085;28;20088;-53
2020/12/11 10:08:35;;;;;;;20.00;9.68;;;5.20;99.90;;;;;;5004949;28;20041;-55
2020/12/11 10:11:21;;;;;;;20.42;9.65;;;4.90;99.90;;;;;;5032694;28;20120;-56
2020/12/11 10:16:59;;;;;;;22.23;10.15;;;4.60;99.90;;;;;;5032294;28;20034;-55
2020/12/11 10:19:48;;;;;;;21.90;10.38;;;4.50;99.90;;;;;;5033007;28;20470;-55
2020/12/11 10:22:34;;;;;;;24.08;11.07;;;4.40;99.90;;;;;;5030121;28;20104;-56
2020/12/11 10:25:21;;;;;;;21.38;10.50;;;4.30;99.90;;;;;;5033100;28;20045;-53
2020/12/11 10:28:07;;;;;;;21.65;10.32;;;4.30;99.90;;;;;;5031509;28;20038;-56
2020/12/11 10:30:53;;;;;;;22.20;11.18;;;4.40;99.90;;;;;;5033050;28;20394;-54
2020/12/11 10:33:39;;;;;;;20.75;9.93;;;4.30;99.90;;;;;;5032664;28;20119;-55
2020/12/11 10:36:32;;;;;;;24.13;12.23;;;4.60;99.90;;;;;;5032708;28;20048;-55
2020/12/11 10:39:18;;;;;;;26.58;12.35;;;4.60;99.90;;;;;;5031404;28;20445;-57
2020/12/11 10:42:04;;;;;;;23.30;10.32;;;4.60;99.90;;;;;;5032310;28;20603;-54
2020/12/11 10:44:50;;;;;;;21.35;10.23;;;4.80;99.90;;;;;;5032884;28;20143;-57
2020/12/11 10:47:36;;;;;;;21.48;10.27;;;4.60;99.90;;;;;;5032682;28;20496;-54
2020/12/11 10:50:22;;;;;;;25.05;11.10;;;4.80;99.90;;;;;;5031670;28;20633;-58
2020/12/11 10:53:08;;;;;;;25.23;11.05;;;4.60;99.90;;;;;;5030680;28;20030;-57
2020/12/11 10:55:54;;;;;;;19.52;9.55;;;4.70;99.90;;;;;;5032995;28;20188;-57
2020/12/11 10:58:41;;;;;;;17.45;9.40;;;4.70;99.90;;;;;;5031543;28;20030;-57
2020/12/11 11:01:27;;;;;;;20.85;9.68;;;4.80;99.90;;;;;;5031639;28;20037;-54
2020/12/11 11:04:13;;;;;;;21.38;10.15;;;4.70;99.90;;;;;;5032898;28;20041;-55
2020/12/11 11:07:13;;;;;;;20.00;9.20;;;5.00;99.90;;;;;;5031041;28;20809;-51
2020/12/11 11:12:59;;;;;;;15.32;8.38;;;5.10;99.90;;;;;;5031473;28;20041;-55
2020/12/11 11:15:50;;;;;;;16.73;8.90;;;5.30;99.90;;;;;;5031949;28;20071;-55
2020/12/11 11:18:44;;;;;;;19.50;8.98;;;5.30;99.90;;;;;;5030424;28;20048;-53
2020/12/11 11:27:51;;;;;;;19.65;8.50;;;4.90;99.90;;;;;;5030612;28;20079;-51
2020/12/11 11:30:37;;;;;;;20.90;8.82;;;4.90;99.90;;;;;;5030927;28;20052;-53
2020/12/11 11:33:23;;;;;;;17.45;8.35;;;5.10;99.90;;;;;;5023893;28;20116;-54
2020/12/11 11:36:11;;;;;;;17.80;8.45;;;5.10;99.90;;;;;;5030526;28;20043;-57
2020/12/11 11:38:57;;;;;;;15.93;8.45;;;5.20;99.90;;;;;;5030082;28;20061;-56
2020/12/11 11:41:49;;;;;;;18.58;8.57;;;5.30;99.90;;;;;;5032271;28;20037;-55
2020/12/11 11:44:49;;;;;;;19.23;8.98;;;5.40;99.90;;;;;;5030762;28;20466;-57
2020/12/11 11:47:39;;;;;;;17.45;9.13;;;5.60;99.90;;;;;;5031552;28;20037;-56
2020/12/11 11:50:35;;;;;;;17.10;9.20;;;5.80;99.90;;;;;;5016228;28;20034;-53
2020/12/11 11:53:22;;;;;;;15.88;9.02;;;6.00;99.90;;;;;;4996099;28;20029;-55
2020/12/11 11:56:08;;;;;;;16.77;8.50;;;7.10;99.90;;;;;;5011183;28;20045;-57
2020/12/11 11:58:54;;;;;;;20.75;8.85;;;7.40;99.90;;;;;;5011103;28;20053;-56
2020/12/11 12:01:40;;;;;;;16.95;8.50;;;7.10;99.90;;;;;;5011604;28;20030;-53
2020/12/11 12:04:26;;;;;;;13.77;7.47;;;7.20;99.90;;;;;;5010705;28;20046;-54
2020/12/11 12:07:12;;;;;;;13.77;7.53;;;7.40;99.90;;;;;;5010638;28;20049;-53
2020/12/11 12:09:58;;;;;;;14.35;7.70;;;8.30;99.90;;;;;;5010255;28;20037;-56
2020/12/11 12:12:45;;;;;;;14.63;7.72;;;7.90;99.90;;;;;;5011152;28;20038;-54
2020/12/11 12:15:32;;;;;;;13.75;7.70;;;8.60;99.90;;;;;;5010683;28;20053;-56
2020/12/11 12:18:18;;;;;;;14.25;7.10;;;7.60;99.90;;;;;;5011350;28;20034;-56
2020/12/11 12:21:09;;;;;;;17.58;8.27;;;7.40;99.90;;;;;;5014476;28;20462;-56
2020/12/11 12:27:22;;;;;;;15.35;7.30;;;7.50;99.90;;;;;;5030139;28;20030;-53
2020/12/11 12:30:09;;;;;;;14.65;7.30;;;7.70;99.90;;;;;;5030614;28;20037;-54
2020/12/11 12:36:13;;;;;;;15.75;8.10;;;6.90;99.90;;;;;;5029856;28;20120;-56
2020/12/11 12:39:32;;;;;;;17.38;8.15;;;6.70;99.90;;;;;;5029646;28;20116;-53
2020/12/11 12:45:28;;;;;;;15.05;7.97;;;6.50;99.90;;;;;;5030335;28;20486;-53
2020/12/11 12:48:14;;;;;;;18.27;8.90;;;6.30;99.90;;;;;;5029819;28;20045;-53
2020/12/11 12:51:00;;;;;;;16.27;8.80;;;6.30;99.90;;;;;;5030071;28;20059;-55
2020/12/11 12:53:47;;;;;;;17.80;9.68;;;6.10;99.90;;;;;;5030910;28;20124;-56
2020/12/11 12:56:45;;;;;;;19.58;8.25;;;6.10;99.90;;;;;;5030619;28;20026;-54
2020/12/11 12:59:50;;;;;;;21.90;11.20;;;6.00;99.90;;;;;;5020011;28;20136;-54
2020/12/11 13:03:00;;;;;;;22.58;9.55;;;5.80;99.90;;;;;;5034371;28;20414;-56
2020/12/11 13:05:46;;;;;;;23.02;8.68;;;5.70;99.90;;;;;;5033455;28;20044;-56
2020/12/11 13:08:32;;;;;;;19.92;9.38;;;5.70;99.90;;;;;;5035189;28;20180;-54
2020/12/11 13:11:18;;;;;;;20.20;9.75;;;5.70;99.90;;;;;;5034600;28;20120;-55
2020/12/11 13:14:05;;;;;;;22.42;9.55;;;5.60;99.90;;;;;;5034118;28;20045;-53
2020/12/11 13:16:51;;;;;;;24.02;10.18;;;5.40;99.90;;;;;;5034932;28;20092;-56
2020/12/11 13:19:38;;;;;;;20.48;9.75;;;5.30;99.90;;;;;;5034209;28;20044;-54
2020/12/11 13:22:34;;;;;;;24.02;10.88;;;5.30;99.90;;;;;;5034748;28;20041;-56
2020/12/11 13:28:25;;;;;;;18.55;9.52;;;5.30;99.90;;;;;;5033057;28;20033;-56
2020/12/11 13:31:19;;;;;;;22.23;10.45;;;5.40;99.90;;;;;;5033627;28;20038;-56
2020/12/11 13:34:05;;;;;;;22.90;10.38;;;5.60;99.90;;;;;;5033711;28;20030;-56
2020/12/11 13:36:51;;;;;;;17.70;8.68;;;5.50;99.90;;;;;;5033112;28;20482;-57
2020/12/11 13:39:37;;;;;;;20.05;9.63;;;5.50;99.90;;;;;;5033941;28;20049;-55
2020/12/11 13:42:24;;;;;;;23.05;9.43;;;5.40;99.90;;;;;;5033872;28;20460;-55
2020/12/11 13:45:10;;;;;;;19.80;8.63;;;5.50;99.90;;;;;;5032803;28;20064;-56
2020/12/11 13:47:56;;;;;;;21.65;9.35;;;5.40;99.90;;;;;;5033215;28;20143;-56
2020/12/11 13:50:42;;;;;;;19.45;9.13;;;5.50;99.90;;;;;;5033870;28;20516;-53
2020/12/11 13:53:28;;;;;;;20.40;9.07;;;5.60;99.90;;;;;;5033142;28;20034;-54
2020/12/11 13:56:15;;;;;;;20.67;8.88;;;5.60;99.90;;;;;;5033406;28;20490;-54
2020/12/11 13:59:01;;;;;;;18.58;8.57;;;5.60;99.90;;;;;;5033567;28;20124;-56
2020/12/11 14:01:49;;;;;;;18.27;7.97;;;5.60;99.90;;;;;;5032112;28;20087;-56
2020/12/11 14:04:35;;;;;;;23.38;9.73;;;5.70;99.90;;;;;;5032868;28;20548;-56
2020/12/11 14:07:21;;;;;;;16.60;7.65;;;5.60;99.90;;;;;;5032372;28;20437;-52
2020/12/11 14:10:07;;;;;;;17.55;8.23;;;5.60;99.90;;;;;;5034002;28;20111;-56
2020/12/11 14:12:53;;;;;;;17.70;8.40;;;5.50;99.90;;;;;;5032770;28;20040;-56
2020/12/11 14:15:39;;;;;;;14.40;8.10;;;5.40;99.90;;;;;;5033295;28;20099;-56
2020/12/11 14:21:30;;;;;;;20.00;8.20;;;5.50;99.90;;;;;;5033330;28;20041;-55
2020/12/11 14:24:16;;;;;;;21.08;9.00;;;5.70;99.90;;;;;;5017842;28;20037;-56
2020/12/11 14:27:03;;;;;;;15.52;8.32;;;5.80;99.90;;;;;;5031604;28;20095;-56
2020/12/11 14:29:49;;;;;;;24.45;9.65;;;5.80;99.90;;;;;;5032543;28;20038;-57
2020/12/11 14:32:35;;;;;;;19.13;9.10;;;5.80;99.90;;;;;;5033156;28;20120;-56
2020/12/11 14:35:21;;;;;;;19.23;9.55;;;5.80;99.90;;;;;;5033131;28;20033;-55
2020/12/11 14:39:10;;;;;;;20.23;8.40;;;5.80;99.90;;;;;;5032342;28;20529;-52
2020/12/11 14:41:24;;;;;;;21.83;9.35;;;5.70;99.90;;;;;;5026769;28;20132;-55
2020/12/11 14:44:10;;;;;;;20.88;9.25;;;5.80;99.90;;;;;;5031948;28;20394;-55
2020/12/11 14:46:56;;;;;;;19.45;9.02;;;5.70;99.90;;;;;;5032716;28;20044;-54
2020/12/11 14:49:45;;;;;;;18.55;9.05;;;5.70;99.90;;;;;;5032204;28;20401;-56
2020/12/11 14:52:32;;;;;;;16.60;7.85;;;5.60;99.90;;;;;;5031382;28;20037;-56
2020/12/11 14:55:18;;;;;;;16.88;8.57;;;5.60;99.90;;;;;;5031208;28;20030;-55
2020/12/11 14:58:06;;;;;;;16.23;8.02;;;5.60;99.90;;;;;;5032158;28;20120;-53
2020/12/11 15:00:52;;;;;;;19.05;8.63;;;5.60;99.90;;;;;;5032489;28;20045;-53
2020/12/11 15:03:39;;;;;;;16.48;7.85;;;5.70;99.90;;;;;;5031422;28;20026;-56